sensor_id;sensor_type;location;lat;lon;timestamp;temperature;humidity
20479;DHT22;10398;52.490;13.434;2023-11-18T00:01:20;7.90;99.90
20479;DHT22;10398;52.490;13.434;2023-11-18T00:03:46;7.90;99.90
20479;DHT22;10398;52.490;13.434;2023-11-18T00:06:11;8.00;99.90
20479;DHT22;10398;52.490;13.434;2023-11-18T00:08:38;8.00;99.90
20479;DHT22;10398;52.490;13.434;2023-11-18T00:11:04;8.00;99.90
20479;DHT22;10398;52.490;13.434;2023-11-18T00:13:29;8.00;99.90
20479;DHT22;10398;52.490;13.434;2023-11-18T00:15:55;7.90;99.90
20479;DHT22;10398;52.490;13.434;2023-11-18T00:18:21;8.00;99.90
20479;DHT22;10398;52.490;13.434;2023-11-18T00:20:46;8.00;99.90
20479;DHT22;10398;52.490;13.434;2023-11-18T00:23:12;8.10;99.90
20479;DHT22;10398;52.490;13.434;2023-11-18T00:25:38;8.10;99.90
20479;DHT22;10398;52.490;13.434;2023-11-18T00:28:06;8.10;99.90
20479;DHT22;10398;52.490;13.434;2023-11-18T00:30:34;8.10;99.90
20479;DHT22;10398;52.490;13.434;2023-11-18T00:33:00;8.00;99.90
20479;DHT22;10398;52.490;13.434;2023-11-18T00:35:26;8.00;99.90
20479;DHT22;10398;52.490;13.434;2023-11-18T00:37:51;8.00;99.90
20479;DHT22;10398;52.490;13.434;2023-11-18T00:40:17;8.00;99.90
20479;DHT22;10398;52.490;13.434;2023-11-18T00:42:45;8.00;99.90
20479;DHT22;10398;52.490;13.434;2023-11-18T00:45:11;8.00;99.90
20479;DHT22;10398;52.490;13.434;2023-11-18T00:47:38;8.00;99.90
20479;DHT22;10398;52.490;13.434;2023-11-18T00:50:06;8.00;99.90
20479;DHT22;10398;52.490;13.434;2023-11-18T00:52:34;7.90;99.90
20479;DHT22;10398;52.490;13.434;2023-11-18T00:54:59;7.90;99.90
20479;DHT22;10398;52.490;13.434;2023-11-18T00:57:26;7.90;99.90
20479;DHT22;10398;52.490;13.434;2023-11-18T00:59:52;7.80;99.90
20479;DHT22;10398;52.490;13.434;2023-11-18T01:02:17;7.80;99.90
20479;DHT22;10398;52.490;13.434;2023-11-18T01:04:44;7.80;99.90
20479;DHT22;10398;52.490;13.434;2023-11-18T01:07:11;7.80;99.90
20479;DHT22;10398;52.490;13.434;2023-11-18T01:09:37;7.80;99.90
20479;DHT22;10398;52.490;13.434;2023-11-18T01:12:04;7.90;99.90
20479;DHT22;10398;52.490;13.434;2023-11-18T01:14:31;7.90;99.90
20479;DHT22;10398;52.490;13.434;2023-11-18T01:16:57;7.80;99.90
20479;DHT22;10398;52.490;13.434;2023-11-18T01:19:22;7.80;99.90
20479;DHT22;10398;52.490;13.434;2023-11-18T01:21:49;7.80;99.90
20479;DHT22;10398;52.490;13.434;2023-11-18T01:24:14;7.80;99.90
20479;DHT22;10398;52.490;13.434;2023-11-18T01:26:41;7.80;99.90
20479;DHT22;10398;52.490;13.434;2023-11-18T01:29:07;7.80;99.90
20479;DHT22;10398;52.490;13.434;2023-11-18T01:31:33;7.80;99.90
20479;DHT22;10398;52.490;13.434;2023-11-18T01:33:58;7.80;99.90
20479;DHT22;10398;52.490;13.434;2023-11-18T01:36:25;7.80;99.90
20479;DHT22;10398;52.490;13.434;2023-11-18T01:38:50;7.90;99.90
20479;DHT22;10398;52.490;13.434;2023-11-18T01:41:16;7.90;99.90
20479;DHT22;10398;52.490;13.434;2023-11-18T01:43:46;7.90;99.90
20479;DHT22;10398;52.490;13.434;2023-11-18T01:46:12;7.90;99.90
20479;DHT22;10398;52.490;13.434;2023-11-18T01:48:39;7.80;99.90
20479;DHT22;10398;52.490;13.434;2023-11-18T01:51:06;7.80;99.90
20479;DHT22;10398;52.490;13.434;2023-11-18T01:53:34;7.80;99.90
20479;DHT22;10398;52.490;13.434;2023-11-18T01:56:02;7.70;99.90
20479;DHT22;10398;52.490;13.434;2023-11-18T01:58:28;7.80;99.90
20479;DHT22;10398;52.490;13.434;2023-11-18T02:00:56;7.80;99.90
20479;DHT22;10398;52.490;13.434;2023-11-18T02:03:22;7.70;99.90
20479;DHT22;10398;52.490;13.434;2023-11-18T02:05:48;7.70;99.90
20479;DHT22;10398;52.490;13.434;2023-11-18T02:08:14;7.70;99.90
20479;DHT22;10398;52.490;13.434;2023-11-18T02:10:47;7.70;99.90
20479;DHT22;10398;52.490;13.434;2023-11-18T02:13:21;7.80;99.90
20479;DHT22;10398;52.490;13.434;2023-11-18T02:15:52;7.70;99.90
20479;DHT22;10398;52.490;13.434;2023-11-18T02:18:18;7.70;99.90
20479;DHT22;10398;52.490;13.434;2023-11-18T02:20:44;7.70;99.90
20479;DHT22;10398;52.490;13.434;2023-11-18T02:23:13;7.70;99.90
20479;DHT22;10398;52.490;13.434;2023-11-18T02:25:48;7.70;99.90
20479;DHT22;10398;52.490;13.434;2023-11-18T02:28:14;7.70;99.90
20479;DHT22;10398;52.490;13.434;2023-11-18T02:30:41;7.80;99.90
20479;DHT22;10398;52.490;13.434;2023-11-18T02:33:19;7.80;99.90
20479;DHT22;10398;52.490;13.434;2023-11-18T02:35:59;8.00;99.90
20479;DHT22;10398;52.490;13.434;2023-11-18T02:38:36;8.00;99.90
20479;DHT22;10398;52.490;13.434;2023-11-18T02:41:10;8.00;99.90
20479;DHT22;10398;52.490;13.434;2023-11-18T02:43:37;8.00;99.90
20479;DHT22;10398;52.490;13.434;2023-11-18T02:46:06;8.00;99.90
20479;DHT22;10398;52.490;13.434;2023-11-18T02:48:32;8.00;99.90
20479;DHT22;10398;52.490;13.434;2023-11-18T02:50:59;8.00;99.90
20479;DHT22;10398;52.490;13.434;2023-11-18T02:53:25;8.10;99.90
20479;DHT22;10398;52.490;13.434;2023-11-18T02:55:51;8.00;99.90
20479;DHT22;10398;52.490;13.434;2023-11-18T02:58:20;7.90;99.90
20479;DHT22;10398;52.490;13.434;2023-11-18T03:00:46;8.00;99.90
20479;DHT22;10398;52.490;13.434;2023-11-18T03:03:12;7.90;99.90
20479;DHT22;10398;52.490;13.434;2023-11-18T03:05:37;7.90;99.90
20479;DHT22;10398;52.490;13.434;2023-11-18T03:08:04;8.00;99.90
20479;DHT22;10398;52.490;13.434;2023-11-18T03:10:32;7.90;99.90
20479;DHT22;10398;52.490;13.434;2023-11-18T03:13:00;7.90;99.90
20479;DHT22;10398;52.490;13.434;2023-11-18T03:15:26;7.90;99.90
20479;DHT22;10398;52.490;13.434;2023-11-18T03:17:52;7.90;99.90
20479;DHT22;10398;52.490;13.434;2023-11-18T03:20:20;7.90;99.90
20479;DHT22;10398;52.490;13.434;2023-11-18T03:22:46;8.00;99.90
20479;DHT22;10398;52.490;13.434;2023-11-18T03:25:13;8.00;99.90
20479;DHT22;10398;52.490;13.434;2023-11-18T03:27:39;8.00;99.90
20479;DHT22;10398;52.490;13.434;2023-11-18T03:30:06;8.00;99.90
20479;DHT22;10398;52.490;13.434;2023-11-18T03:32:34;8.00;99.90
20479;DHT22;10398;52.490;13.434;2023-11-18T03:35:01;8.00;99.90
20479;DHT22;10398;52.490;13.434;2023-11-18T03:37:26;8.00;99.90
20479;DHT22;10398;52.490;13.434;2023-11-18T03:39:53;7.90;99.90
20479;DHT22;10398;52.490;13.434;2023-11-18T03:42:18;8.00;99.90
20479;DHT22;10398;52.490;13.434;2023-11-18T03:44:44;7.90;99.90
20479;DHT22;10398;52.490;13.434;2023-11-18T03:47:14;8.00;99.90
20479;DHT22;10398;52.490;13.434;2023-11-18T03:49:40;7.90;99.90
20479;DHT22;10398;52.490;13.434;2023-11-18T03:52:06;7.90;99.90
20479;DHT22;10398;52.490;13.434;2023-11-18T03:54:32;8.00;99.90
20479;DHT22;10398;52.490;13.434;2023-11-18T03:56:57;7.90;99.90
20479;DHT22;10398;52.490;13.434;2023-11-18T03:59:25;8.00;99.90
20479;DHT22;10398;52.490;13.434;2023-11-18T04:01:50;8.00;99.90
20479;DHT22;10398;52.490;13.434;2023-11-18T04:04:17;8.00;99.90
20479;DHT22;10398;52.490;13.434;2023-11-18T04:06:43;8.00;99.90
20479;DHT22;10398;52.490;13.434;2023-11-18T04:09:08;7.90;99.90
20479;DHT22;10398;52.490;13.434;2023-11-18T04:11:38;7.90;99.90
20479;DHT22;10398;52.490;13.434;2023-11-18T04:14:04;8.00;99.90
20479;DHT22;10398;52.490;13.434;2023-11-18T04:16:29;7.90;99.90
20479;DHT22;10398;52.490;13.434;2023-11-18T04:18:55;7.90;99.90
20479;DHT22;10398;52.490;13.434;2023-11-18T04:21:21;7.90;99.90
20479;DHT22;10398;52.490;13.434;2023-11-18T04:23:47;7.90;99.90
20479;DHT22;10398;52.490;13.434;2023-11-18T04:26:12;7.90;99.90
20479;DHT22;10398;52.490;13.434;2023-11-18T04:28:38;7.90;99.90
20479;DHT22;10398;52.490;13.434;2023-11-18T04:31:04;7.90;99.90
20479;DHT22;10398;52.490;13.434;2023-11-18T04:33:30;7.90;99.90
20479;DHT22;10398;52.490;13.434;2023-11-18T04:35:56;7.90;99.90
20479;DHT22;10398;52.490;13.434;2023-11-18T04:38:25;7.90;99.90
20479;DHT22;10398;52.490;13.434;2023-11-18T04:40:51;7.90;99.90
20479;DHT22;10398;52.490;13.434;2023-11-18T04:43:18;7.90;99.90
20479;DHT22;10398;52.490;13.434;2023-11-18T04:45:43;7.90;99.90
20479;DHT22;10398;52.490;13.434;2023-11-18T04:48:09;7.80;99.90
20479;DHT22;10398;52.490;13.434;2023-11-18T04:50:35;7.90;99.90
20479;DHT22;10398;52.490;13.434;2023-11-18T04:53:00;7.90;99.90
20479;DHT22;10398;52.490;13.434;2023-11-18T04:55:28;7.80;99.90
20479;DHT22;10398;52.490;13.434;2023-11-18T04:57:54;7.80;99.90
20479;DHT22;10398;52.490;13.434;2023-11-18T05:00:20;7.90;99.90
20479;DHT22;10398;52.490;13.434;2023-11-18T05:02:47;7.80;99.90
20479;DHT22;10398;52.490;13.434;2023-11-18T05:05:13;7.80;99.90
20479;DHT22;10398;52.490;13.434;2023-11-18T05:07:40;7.80;99.90
20479;DHT22;10398;52.490;13.434;2023-11-18T05:10:07;7.80;99.90
20479;DHT22;10398;52.490;13.434;2023-11-18T05:12:36;7.80;99.90
20479;DHT22;10398;52.490;13.434;2023-11-18T05:15:05;7.80;99.90
20479;DHT22;10398;52.490;13.434;2023-11-18T05:17:36;7.80;99.90
20479;DHT22;10398;52.490;13.434;2023-11-18T05:20:06;7.90;99.90
20479;DHT22;10398;52.490;13.434;2023-11-18T05:22:36;7.80;99.90
20479;DHT22;10398;52.490;13.434;2023-11-18T05:25:03;7.80;99.90
20479;DHT22;10398;52.490;13.434;2023-11-18T05:27:30;7.80;99.90
20479;DHT22;10398;52.490;13.434;2023-11-18T05:29:57;7.80;99.90
20479;DHT22;10398;52.490;13.434;2023-11-18T05:32:27;7.80;99.90
20479;DHT22;10398;52.490;13.434;2023-11-18T05:34:53;7.80;99.90
20479;DHT22;10398;52.490;13.434;2023-11-18T05:37:20;7.80;99.90
20479;DHT22;10398;52.490;13.434;2023-11-18T05:39:45;7.70;99.90
20479;DHT22;10398;52.490;13.434;2023-11-18T05:42:11;7.70;99.90
20479;DHT22;10398;52.490;13.434;2023-11-18T05:44:38;7.70;99.90
20479;DHT22;10398;52.490;13.434;2023-11-18T05:47:08;7.70;99.90
20479;DHT22;10398;52.490;13.434;2023-11-18T05:49:37;7.70;99.90
20479;DHT22;10398;52.490;13.434;2023-11-18T05:52:03;7.70;99.90
20479;DHT22;10398;52.490;13.434;2023-11-18T05:54:29;7.70;99.90
20479;DHT22;10398;52.490;13.434;2023-11-18T05:56:56;7.70;99.90
20479;DHT22;10398;52.490;13.434;2023-11-18T05:59:21;7.70;99.90
20479;DHT22;10398;52.490;13.434;2023-11-18T06:01:49;7.70;99.90
20479;DHT22;10398;52.490;13.434;2023-11-18T06:04:14;7.70;99.90
20479;DHT22;10398;52.490;13.434;2023-11-18T06:06:41;7.70;99.90
20479;DHT22;10398;52.490;13.434;2023-11-18T06:09:06;7.70;99.90
20479;DHT22;10398;52.490;13.434;2023-11-18T06:11:40;7.70;99.90
20479;DHT22;10398;52.490;13.434;2023-11-18T06:14:07;7.70;99.90
20479;DHT22;10398;52.490;13.434;2023-11-18T06:16:34;7.70;99.90
20479;DHT22;10398;52.490;13.434;2023-11-18T06:19:01;7.70;99.90
20479;DHT22;10398;52.490;13.434;2023-11-18T06:21:31;7.60;99.90
20479;DHT22;10398;52.490;13.434;2023-11-18T06:24:00;7.70;99.90
20479;DHT22;10398;52.490;13.434;2023-11-18T06:26:26;7.80;99.90
20479;DHT22;10398;52.490;13.434;2023-11-18T06:28:53;7.70;99.90
20479;DHT22;10398;52.490;13.434;2023-11-18T06:31:23;7.70;99.90
20479;DHT22;10398;52.490;13.434;2023-11-18T06:33:50;7.80;99.90
20479;DHT22;10398;52.490;13.434;2023-11-18T06:38:45;7.90;99.90
20479;DHT22;10398;52.490;13.434;2023-11-18T06:41:11;7.90;99.90
20479;DHT22;10398;52.490;13.434;2023-11-18T06:43:39;7.90;99.90
20479;DHT22;10398;52.490;13.434;2023-11-18T06:46:32;7.90;99.90
20479;DHT22;10398;52.490;13.434;2023-11-18T06:49:00;7.90;99.90
20479;DHT22;10398;52.490;13.434;2023-11-18T06:51:30;7.80;99.90
20479;DHT22;10398;52.490;13.434;2023-11-18T06:53:57;7.70;99.90
20479;DHT22;10398;52.490;13.434;2023-11-18T06:56:24;7.70;99.90
20479;DHT22;10398;52.490;13.434;2023-11-18T06:58:50;7.60;99.90
20479;DHT22;10398;52.490;13.434;2023-11-18T07:01:16;7.60;99.90
20479;DHT22;10398;52.490;13.434;2023-11-18T07:03:42;7.60;99.90
20479;DHT22;10398;52.490;13.434;2023-11-18T07:06:08;7.60;99.90
20479;DHT22;10398;52.490;13.434;2023-11-18T07:08:35;7.50;99.90
20479;DHT22;10398;52.490;13.434;2023-11-18T07:11:01;7.50;99.90
20479;DHT22;10398;52.490;13.434;2023-11-18T07:13:28;7.50;99.90
20479;DHT22;10398;52.490;13.434;2023-11-18T07:15:53;7.50;99.90
20479;DHT22;10398;52.490;13.434;2023-11-18T07:18:22;7.50;99.90
20479;DHT22;10398;52.490;13.434;2023-11-18T07:20:48;7.60;99.90
20479;DHT22;10398;52.490;13.434;2023-11-18T07:23:14;7.50;99.90
20479;DHT22;10398;52.490;13.434;2023-11-18T07:25:43;7.50;99.90
20479;DHT22;10398;52.490;13.434;2023-11-18T07:28:10;7.60;99.90
20479;DHT22;10398;52.490;13.434;2023-11-18T07:30:35;7.60;99.90
20479;DHT22;10398;52.490;13.434;2023-11-18T07:33:02;7.60;99.90
20479;DHT22;10398;52.490;13.434;2023-11-18T07:35:28;7.60;99.90
20479;DHT22;10398;52.490;13.434;2023-11-18T07:37:55;7.60;99.90
20479;DHT22;10398;52.490;13.434;2023-11-18T07:40:22;7.70;99.90
20479;DHT22;10398;52.490;13.434;2023-11-18T07:42:54;7.70;99.90
20479;DHT22;10398;52.490;13.434;2023-11-18T07:45:21;7.70;99.90
20479;DHT22;10398;52.490;13.434;2023-11-18T07:47:49;7.70;99.90
20479;DHT22;10398;52.490;13.434;2023-11-18T07:50:17;7.80;99.90
20479;DHT22;10398;52.490;13.434;2023-11-18T07:52:45;7.90;99.90
20479;DHT22;10398;52.490;13.434;2023-11-18T07:55:12;7.90;99.90
20479;DHT22;10398;52.490;13.434;2023-11-18T07:57:39;8.00;99.90
20479;DHT22;10398;52.490;13.434;2023-11-18T08:00:05;8.00;99.90
20479;DHT22;10398;52.490;13.434;2023-11-18T08:02:35;8.00;99.90
20479;DHT22;10398;52.490;13.434;2023-11-18T08:05:02;8.00;99.90
20479;DHT22;10398;52.490;13.434;2023-11-18T08:07:43;8.00;99.90
20479;DHT22;10398;52.490;13.434;2023-11-18T08:10:10;8.00;99.90
20479;DHT22;10398;52.490;13.434;2023-11-18T08:12:39;8.00;99.90
20479;DHT22;10398;52.490;13.434;2023-11-18T08:15:06;8.00;99.90
20479;DHT22;10398;52.490;13.434;2023-11-18T08:17:32;7.90;99.90
20479;DHT22;10398;52.490;13.434;2023-11-18T08:19:59;8.00;99.90
20479;DHT22;10398;52.490;13.434;2023-11-18T08:22:25;8.00;99.90
20479;DHT22;10398;52.490;13.434;2023-11-18T08:24:51;8.00;99.90
20479;DHT22;10398;52.490;13.434;2023-11-18T08:27:17;8.00;99.90
20479;DHT22;10398;52.490;13.434;2023-11-18T08:29:43;8.00;99.90
20479;DHT22;10398;52.490;13.434;2023-11-18T08:32:08;8.10;99.90
20479;DHT22;10398;52.490;13.434;2023-11-18T08:34:38;8.10;99.90
20479;DHT22;10398;52.490;13.434;2023-11-18T08:37:06;8.20;99.90
20479;DHT22;10398;52.490;13.434;2023-11-18T08:39:32;8.10;99.90
20479;DHT22;10398;52.490;13.434;2023-11-18T08:41:58;8.10;99.90
20479;DHT22;10398;52.490;13.434;2023-11-18T08:44:24;8.10;99.90
20479;DHT22;10398;52.490;13.434;2023-11-18T08:46:51;8.20;99.90
20479;DHT22;10398;52.490;13.434;2023-11-18T08:49:18;8.10;99.90
20479;DHT22;10398;52.490;13.434;2023-11-18T08:51:48;8.20;99.90
20479;DHT22;10398;52.490;13.434;2023-11-18T08:54:15;8.20;99.90
20479;DHT22;10398;52.490;13.434;2023-11-18T08:57:03;8.20;99.90
20479;DHT22;10398;52.490;13.434;2023-11-18T08:59:29;8.20;99.90
20479;DHT22;10398;52.490;13.434;2023-11-18T09:01:56;8.20;99.90
20479;DHT22;10398;52.490;13.434;2023-11-18T09:04:25;8.30;99.90
20479;DHT22;10398;52.490;13.434;2023-11-18T09:06:53;8.30;99.90
20479;DHT22;10398;52.490;13.434;2023-11-18T09:09:20;8.30;99.90
20479;DHT22;10398;52.490;13.434;2023-11-18T09:11:53;8.20;99.90
20479;DHT22;10398;52.490;13.434;2023-11-18T09:14:19;8.20;99.90
20479;DHT22;10398;52.490;13.434;2023-11-18T09:16:45;8.20;99.90
20479;DHT22;10398;52.490;13.434;2023-11-18T09:19:10;8.20;99.90
20479;DHT22;10398;52.490;13.434;2023-11-18T09:21:36;8.20;99.90
20479;DHT22;10398;52.490;13.434;2023-11-18T09:24:02;8.10;99.90
20479;DHT22;10398;52.490;13.434;2023-11-18T09:26:31;8.20;99.90
20479;DHT22;10398;52.490;13.434;2023-11-18T09:28:56;8.20;99.90
20479;DHT22;10398;52.490;13.434;2023-11-18T09:31:23;8.30;99.90
20479;DHT22;10398;52.490;13.434;2023-11-18T09:33:49;8.30;99.90
20479;DHT22;10398;52.490;13.434;2023-11-18T09:36:18;8.30;99.90
20479;DHT22;10398;52.490;13.434;2023-11-18T09:38:44;8.30;99.90
20479;DHT22;10398;52.490;13.434;2023-11-18T09:41:13;8.30;99.90
20479;DHT22;10398;52.490;13.434;2023-11-18T09:43:40;8.30;99.90
20479;DHT22;10398;52.490;13.434;2023-11-18T09:51:19;8.30;99.90
20479;DHT22;10398;52.490;13.434;2023-11-18T09:53:49;8.30;99.90
20479;DHT22;10398;52.490;13.434;2023-11-18T09:59:16;8.30;99.90
20479;DHT22;10398;52.490;13.434;2023-11-18T10:01:48;8.20;99.90
20479;DHT22;10398;52.490;13.434;2023-11-18T10:04:22;8.20;99.90
20479;DHT22;10398;52.490;13.434;2023-11-18T10:06:53;8.30;99.90
20479;DHT22;10398;52.490;13.434;2023-11-18T10:09:19;8.30;99.90
20479;DHT22;10398;52.490;13.434;2023-11-18T10:11:54;8.30;99.90
20479;DHT22;10398;52.490;13.434;2023-11-18T10:14:34;8.30;99.90
20479;DHT22;10398;52.490;13.434;2023-11-18T10:17:04;8.30;99.90
20479;DHT22;10398;52.490;13.434;2023-11-18T10:22:26;8.50;99.90
20479;DHT22;10398;52.490;13.434;2023-11-18T10:24:53;8.50;99.90
20479;DHT22;10398;52.490;13.434;2023-11-18T10:27:24;8.50;99.90
20479;DHT22;10398;52.490;13.434;2023-11-18T10:29:55;8.60;99.90
20479;DHT22;10398;52.490;13.434;2023-11-18T10:32:21;8.60;99.90
20479;DHT22;10398;52.490;13.434;2023-11-18T10:34:48;8.60;99.90
20479;DHT22;10398;52.490;13.434;2023-11-18T10:37:17;8.60;99.90
20479;DHT22;10398;52.490;13.434;2023-11-18T10:39:47;8.60;99.90
20479;DHT22;10398;52.490;13.434;2023-11-18T10:42:17;8.50;99.90
20479;DHT22;10398;52.490;13.434;2023-11-18T10:44:56;8.50;99.90
20479;DHT22;10398;52.490;13.434;2023-11-18T10:47:34;8.50;99.90
20479;DHT22;10398;52.490;13.434;2023-11-18T10:50:04;8.40;99.90
20479;DHT22;10398;52.490;13.434;2023-11-18T10:52:31;8.40;99.90
20479;DHT22;10398;52.490;13.434;2023-11-18T10:55:00;8.30;99.90
20479;DHT22;10398;52.490;13.434;2023-11-18T10:57:32;8.30;99.90
20479;DHT22;10398;52.490;13.434;2023-11-18T11:00:05;8.20;99.90
20479;DHT22;10398;52.490;13.434;2023-11-18T11:02:47;8.20;99.90
20479;DHT22;10398;52.490;13.434;2023-11-18T11:05:29;8.10;99.90
20479;DHT22;10398;52.490;13.434;2023-11-18T11:07:58;8.20;99.90
20479;DHT22;10398;52.490;13.434;2023-11-18T11:10:24;8.10;99.90
20479;DHT22;10398;52.490;13.434;2023-11-18T11:12:55;8.10;99.90
20479;DHT22;10398;52.490;13.434;2023-11-18T11:15:30;8.10;99.90
20479;DHT22;10398;52.490;13.434;2023-11-18T11:18:04;8.10;99.90
20479;DHT22;10398;52.490;13.434;2023-11-18T11:20:39;8.20;99.90
20479;DHT22;10398;52.490;13.434;2023-11-18T11:28:47;8.10;99.90
20479;DHT22;10398;52.490;13.434;2023-11-18T11:31:41;8.20;99.90
20479;DHT22;10398;52.490;13.434;2023-11-18T11:34:16;8.20;99.90
20479;DHT22;10398;52.490;13.434;2023-11-18T11:36:47;8.20;99.90
20479;DHT22;10398;52.490;13.434;2023-11-18T11:39:17;8.00;99.90
20479;DHT22;10398;52.490;13.434;2023-11-18T11:41:50;7.90;99.90
20479;DHT22;10398;52.490;13.434;2023-11-18T11:44:16;7.90;99.90
20479;DHT22;10398;52.490;13.434;2023-11-18T11:46:48;8.00;99.90
20479;DHT22;10398;52.490;13.434;2023-11-18T11:49:22;8.00;99.90
20479;DHT22;10398;52.490;13.434;2023-11-18T11:52:22;8.00;99.90
20479;DHT22;10398;52.490;13.434;2023-11-18T11:54:56;7.90;99.90
20479;DHT22;10398;52.490;13.434;2023-11-18T11:57:27;7.80;99.90
20479;DHT22;10398;52.490;13.434;2023-11-18T12:02:22;8.00;99.90
20479;DHT22;10398;52.490;13.434;2023-11-18T12:04:53;8.00;99.90
20479;DHT22;10398;52.490;13.434;2023-11-18T12:07:21;8.00;99.90
20479;DHT22;10398;52.490;13.434;2023-11-18T12:09:55;8.00;99.90
20479;DHT22;10398;52.490;13.434;2023-11-18T12:12:24;7.90;99.90
20479;DHT22;10398;52.490;13.434;2023-11-18T12:14:56;7.90;99.90
20479;DHT22;10398;52.490;13.434;2023-11-18T12:17:23;8.00;99.90
20479;DHT22;10398;52.490;13.434;2023-11-18T12:19:51;7.90;99.90
20479;DHT22;10398;52.490;13.434;2023-11-18T12:22:24;7.90;99.90
20479;DHT22;10398;52.490;13.434;2023-11-18T12:27:44;7.90;99.90
20479;DHT22;10398;52.490;13.434;2023-11-18T12:32:57;8.00;99.90
20479;DHT22;10398;52.490;13.434;2023-11-18T12:35:48;7.90;99.90
20479;DHT22;10398;52.490;13.434;2023-11-18T12:41:08;7.90;99.90
20479;DHT22;10398;52.490;13.434;2023-11-18T12:43:46;8.00;99.90
20479;DHT22;10398;52.490;13.434;2023-11-18T12:48:43;8.10;99.90
20479;DHT22;10398;52.490;13.434;2023-11-18T12:51:10;8.10;99.90
20479;DHT22;10398;52.490;13.434;2023-11-18T12:53:48;8.20;99.90
20479;DHT22;10398;52.490;13.434;2023-11-18T12:56:19;8.40;99.90
20479;DHT22;10398;52.490;13.434;2023-11-18T12:58:46;8.50;99.90
20479;DHT22;10398;52.490;13.434;2023-11-18T13:01:13;8.60;99.90
20479;DHT22;10398;52.490;13.434;2023-11-18T13:03:40;8.50;99.90
20479;DHT22;10398;52.490;13.434;2023-11-18T13:06:11;8.60;99.90
20479;DHT22;10398;52.490;13.434;2023-11-18T13:08:42;8.60;99.90
20479;DHT22;10398;52.490;13.434;2023-11-18T13:11:09;8.60;99.90
20479;DHT22;10398;52.490;13.434;2023-11-18T13:13:42;8.70;99.90
20479;DHT22;10398;52.490;13.434;2023-11-18T13:16:08;8.70;99.90
20479;DHT22;10398;52.490;13.434;2023-11-18T13:18:44;8.70;99.90
20479;DHT22;10398;52.490;13.434;2023-11-18T13:21:16;8.60;99.90
20479;DHT22;10398;52.490;13.434;2023-11-18T13:23:45;8.70;99.90
20479;DHT22;10398;52.490;13.434;2023-11-18T13:26:15;8.70;99.90
20479;DHT22;10398;52.490;13.434;2023-11-18T13:28:42;8.70;99.90
20479;DHT22;10398;52.490;13.434;2023-11-18T13:31:09;8.70;99.90
20479;DHT22;10398;52.490;13.434;2023-11-18T13:33:41;8.70;99.90
20479;DHT22;10398;52.490;13.434;2023-11-18T13:36:08;8.70;99.90
20479;DHT22;10398;52.490;13.434;2023-11-18T13:38:38;8.60;99.90
20479;DHT22;10398;52.490;13.434;2023-11-18T13:41:04;8.60;99.90
20479;DHT22;10398;52.490;13.434;2023-11-18T13:43:46;8.60;99.90
20479;DHT22;10398;52.490;13.434;2023-11-18T13:46:17;8.50;99.90
20479;DHT22;10398;52.490;13.434;2023-11-18T13:48:47;8.50;99.90
20479;DHT22;10398;52.490;13.434;2023-11-18T13:51:15;8.30;99.90
20479;DHT22;10398;52.490;13.434;2023-11-18T13:53:41;8.20;99.90
20479;DHT22;10398;52.490;13.434;2023-11-18T13:56:10;8.20;99.90
20479;DHT22;10398;52.490;13.434;2023-11-18T13:58:36;8.20;99.90
20479;DHT22;10398;52.490;13.434;2023-11-18T14:01:06;8.10;99.90
20479;DHT22;10398;52.490;13.434;2023-11-18T14:03:36;7.90;99.90
20479;DHT22;10398;52.490;13.434;2023-11-18T14:06:08;7.90;99.90
20479;DHT22;10398;52.490;13.434;2023-11-18T14:08:38;8.00;99.90
20479;DHT22;10398;52.490;13.434;2023-11-18T14:11:04;8.10;99.90
20479;DHT22;10398;52.490;13.434;2023-11-18T14:13:31;8.00;99.90
20479;DHT22;10398;52.490;13.434;2023-11-18T14:15:58;7.90;99.90
20479;DHT22;10398;52.490;13.434;2023-11-18T14:18:25;7.70;99.90
20479;DHT22;10398;52.490;13.434;2023-11-18T14:20:51;7.60;99.90
20479;DHT22;10398;52.490;13.434;2023-11-18T14:23:17;7.60;99.90
20479;DHT22;10398;52.490;13.434;2023-11-18T14:25:44;7.60;99.90
20479;DHT22;10398;52.490;13.434;2023-11-18T14:28:11;7.60;99.90
20479;DHT22;10398;52.490;13.434;2023-11-18T14:30:37;7.50;99.90
20479;DHT22;10398;52.490;13.434;2023-11-18T14:33:03;7.50;99.90
20479;DHT22;10398;52.490;13.434;2023-11-18T14:35:29;7.50;99.90
20479;DHT22;10398;52.490;13.434;2023-11-18T14:37:55;7.30;99.90
20479;DHT22;10398;52.490;13.434;2023-11-18T14:40:24;7.20;99.90
20479;DHT22;10398;52.490;13.434;2023-11-18T14:42:50;7.30;99.90
20479;DHT22;10398;52.490;13.434;2023-11-18T14:45:17;7.40;99.90
20479;DHT22;10398;52.490;13.434;2023-11-18T14:47:43;7.40;99.90
20479;DHT22;10398;52.490;13.434;2023-11-18T14:50:21;7.50;99.90
20479;DHT22;10398;52.490;13.434;2023-11-18T14:52:50;7.50;99.90
20479;DHT22;10398;52.490;13.434;2023-11-18T14:55:17;7.40;99.90
20479;DHT22;10398;52.490;13.434;2023-11-18T14:57:44;7.40;99.90
20479;DHT22;10398;52.490;13.434;2023-11-18T15:00:12;7.30;99.90
20479;DHT22;10398;52.490;13.434;2023-11-18T15:02:48;7.30;99.90
20479;DHT22;10398;52.490;13.434;2023-11-18T15:05:16;7.30;99.90
20479;DHT22;10398;52.490;13.434;2023-11-18T15:07:54;7.30;99.90
20479;DHT22;10398;52.490;13.434;2023-11-18T15:10:24;7.30;99.90
20479;DHT22;10398;52.490;13.434;2023-11-18T15:12:51;7.30;99.90
20479;DHT22;10398;52.490;13.434;2023-11-18T15:15:23;7.20;99.90
20479;DHT22;10398;52.490;13.434;2023-11-18T15:17:57;7.20;99.90
20479;DHT22;10398;52.490;13.434;2023-11-18T15:20:24;7.20;99.90
20479;DHT22;10398;52.490;13.434;2023-11-18T15:22:50;7.10;99.90
20479;DHT22;10398;52.490;13.434;2023-11-18T15:25:16;7.10;99.90
20479;DHT22;10398;52.490;13.434;2023-11-18T15:27:46;7.10;99.90
20479;DHT22;10398;52.490;13.434;2023-11-18T15:30:13;7.10;99.90
20479;DHT22;10398;52.490;13.434;2023-11-18T15:32:43;7.10;99.90
20479;DHT22;10398;52.490;13.434;2023-11-18T15:35:10;7.10;99.90
20479;DHT22;10398;52.490;13.434;2023-11-18T15:37:37;7.10;99.90
20479;DHT22;10398;52.490;13.434;2023-11-18T15:40:05;7.10;99.90
20479;DHT22;10398;52.490;13.434;2023-11-18T15:42:40;7.10;99.90
20479;DHT22;10398;52.490;13.434;2023-11-18T15:45:08;7.10;99.90
20479;DHT22;10398;52.490;13.434;2023-11-18T15:47:35;7.20;99.90
20479;DHT22;10398;52.490;13.434;2023-11-18T15:50:07;7.10;99.90
20479;DHT22;10398;52.490;13.434;2023-11-18T15:52:34;7.20;99.90
20479;DHT22;10398;52.490;13.434;2023-11-18T15:55:01;7.20;99.90
20479;DHT22;10398;52.490;13.434;2023-11-18T15:57:27;7.20;99.90
20479;DHT22;10398;52.490;13.434;2023-11-18T15:59:54;7.20;99.90
20479;DHT22;10398;52.490;13.434;2023-11-18T16:02:20;7.20;99.90
20479;DHT22;10398;52.490;13.434;2023-11-18T16:04:46;7.10;99.90
20479;DHT22;10398;52.490;13.434;2023-11-18T16:07:11;7.20;99.90
20479;DHT22;10398;52.490;13.434;2023-11-18T16:09:37;7.20;99.90